Miedwie — C6XP5 — position and weather

sailwx.info

Track history (hours):
 
Tides and Currents Weather Stations Pressure Air Temp Water Temp Dewpoint Dewpoint Depression Visibility Wind Speed Wind Dir Waves Ship Positions

Miedwie

Last reported at 2018-Jan-02 20:37 UTC. Time now 2018-Jan-22 08:09 UTC.
Position N 27°00' W 091°11'.
Warning: this ship's position is 19 days out of date.

Length 190 m; draft 9.6 m.

Type: Cargo ship. MMSI: 311018300.

Date/timePositionNaut miles runAvg speedWind from/ knotsBaromVisibWave heightAir tempDewpointWater temp
2018-Jan-02 20:37N 27°00' W 091°11'211.7
2018-Jan-02 20:28N 27°01' W 091°10'511.6
2018-Jan-02 20:00N 27°05' W 091°05'611.6
2018-Jan-02 19:30N 27°09' W 091°01'711.4
2018-Jan-02 18:55N 27°14' W 090°56'511.5
2018-Jan-02 18:30N 27°18' W 090°52'611.6
2018-Jan-02 18:00N 27°22' W 090°48'611.6
2018-Jan-02 17:29N 27°26' W 090°43'611.4
2018-Jan-02 16:59N 27°31' W 090°39'511.4
2018-Jan-02 16:30N 27°35' W 090°35'611.4
2018-Jan-02 16:00N 27°39' W 090°31'611.2
2018-Jan-02 15:27N 27°44' W 090°26'  
Track history (hours):
 
Tides and Currents Weather Stations Pressure Air Temp Water Temp Dewpoint Dewpoint Depression Visibility Wind Speed Wind Dir Waves Ship Positions

Miedwie

Last reported at 2018-Jan-02 20:37 UTC. Time now 2018-Jan-22 08:09 UTC.
Position N 27°00' W 091°11'.
Warning: this ship's position is 19 days out of date.

Length 190 m; draft 9.6 m.

Type: Cargo ship. MMSI: 311018300.

Date/timePositionNaut miles runAvg speedWind from/ knotsBaromVisibWave heightAir tempDewpointWater temp
2018-Jan-02 20:37N 27°00' W 091°11'211.7
2018-Jan-02 20:28N 27°01' W 091°10'511.6
2018-Jan-02 20:00N 27°05' W 091°05'611.6
2018-Jan-02 19:30N 27°09' W 091°01'711.4
2018-Jan-02 18:55N 27°14' W 090°56'511.5
2018-Jan-02 18:30N 27°18' W 090°52'611.6
2018-Jan-02 18:00N 27°22' W 090°48'611.6
2018-Jan-02 17:29N 27°26' W 090°43'611.4
2018-Jan-02 16:59N 27°31' W 090°39'511.4
2018-Jan-02 16:30N 27°35' W 090°35'611.4
2018-Jan-02 16:00N 27°39' W 090°31'611.2
2018-Jan-02 15:27N 27°44' W 090°26'  

Dump ship's entire track history